sensor_id;sensor_type;location;lat;lon;timestamp;pressure;altitude;pressure_sealevel;temperature;humidity
33432;BME280;35187;31.882;34.828;2023-04-27T00:00:47;100480;;;21;40
33432;BME280;35187;31.882;34.828;2023-04-27T00:03:16;100470;;;21;40
33432;BME280;35187;31.882;34.828;2023-04-27T00:05:45;100470;;;21;40
33432;BME280;35187;31.882;34.828;2023-04-27T00:08:14;100470;;;21;40
33432;BME280;35187;31.882;34.828;2023-04-27T00:10:43;100470;;;21;40
33432;BME280;35187;31.882;34.828;2023-04-27T00:13:12;100470;;;21;40
33432;BME280;35187;31.882;34.828;2023-04-27T00:15:40;100470;;;21;39
33432;BME280;35187;31.882;34.828;2023-04-27T00:18:09;100470;;;21;40
33432;BME280;35187;31.882;34.828;2023-04-27T00:20:38;100470;;;21;39
33432;BME280;35187;31.882;34.828;2023-04-27T00:23:07;100460;;;21;39
33432;BME280;35187;31.882;34.828;2023-04-27T00:25:36;100460;;;21;39
33432;BME280;35187;31.882;34.828;2023-04-27T00:28:05;100460;;;21;39
33432;BME280;35187;31.882;34.828;2023-04-27T00:30:34;100460;;;21;39
33432;BME280;35187;31.882;34.828;2023-04-27T00:33:03;100450;;;21;39
33432;BME280;35187;31.882;34.828;2023-04-27T00:35:32;100450;;;21;39
33432;BME280;35187;31.882;34.828;2023-04-27T00:38:01;100450;;;21;39
33432;BME280;35187;31.882;34.828;2023-04-27T00:40:30;100450;;;21;39
33432;BME280;35187;31.882;34.828;2023-04-27T00:42:59;100450;;;21;39
33432;BME280;35187;31.882;34.828;2023-04-27T00:45:28;100450;;;21;39
33432;BME280;35187;31.882;34.828;2023-04-27T00:47:57;100450;;;21;39
33432;BME280;35187;31.882;34.828;2023-04-27T00:50:28;100450;;;21;39
33432;BME280;35187;31.882;34.828;2023-04-27T00:52:57;100450;;;21;39
33432;BME280;35187;31.882;34.828;2023-04-27T00:55:26;100440;;;21;39
33432;BME280;35187;31.882;34.828;2023-04-27T00:57:55;100440;;;21;39
33432;BME280;35187;31.882;34.828;2023-04-27T01:00:24;100440;;;21;39
33432;BME280;35187;31.882;34.828;2023-04-27T01:02:54;100440;;;21;39
33432;BME280;35187;31.882;34.828;2023-04-27T01:05:24;100440;;;21;39
33432;BME280;35187;31.882;34.828;2023-04-27T01:07:54;100430;;;21;39
33432;BME280;35187;31.882;34.828;2023-04-27T01:10:23;100430;;;21;39
33432;BME280;35187;31.882;34.828;2023-04-27T01:12:52;100430;;;21;39
33432;BME280;35187;31.882;34.828;2023-04-27T01:15:21;100430;;;21;39
33432;BME280;35187;31.882;34.828;2023-04-27T01:17:56;100430;;;21;39
33432;BME280;35187;31.882;34.828;2023-04-27T01:20:26;100420;;;21;39
33432;BME280;35187;31.882;34.828;2023-04-27T01:22:55;100420;;;21;39
33432;BME280;35187;31.882;34.828;2023-04-27T01:25:24;100420;;;21;39
33432;BME280;35187;31.882;34.828;2023-04-27T01:27:53;100420;;;21;39
33432;BME280;35187;31.882;34.828;2023-04-27T01:30:22;100420;;;21;39
33432;BME280;35187;31.882;34.828;2023-04-27T01:32:51;100420;;;21;39
33432;BME280;35187;31.882;34.828;2023-04-27T01:35:20;100420;;;21;39
33432;BME280;35187;31.882;34.828;2023-04-27T01:37:49;100420;;;21;39
33432;BME280;35187;31.882;34.828;2023-04-27T01:40:18;100420;;;21;39
33432;BME280;35187;31.882;34.828;2023-04-27T01:42:47;100420;;;21;39
33432;BME280;35187;31.882;34.828;2023-04-27T01:45:16;100410;;;21;39
33432;BME280;35187;31.882;34.828;2023-04-27T01:47:45;100410;;;21;39
33432;BME280;35187;31.882;34.828;2023-04-27T01:50:14;100400;;;21;38
33432;BME280;35187;31.882;34.828;2023-04-27T01:52:43;100400;;;21;39
33432;BME280;35187;31.882;34.828;2023-04-27T01:55:12;100400;;;21;38
33432;BME280;35187;31.882;34.828;2023-04-27T01:57:40;100400;;;21;39
33432;BME280;35187;31.882;34.828;2023-04-27T02:00:10;100400;;;21;38
33432;BME280;35187;31.882;34.828;2023-04-27T02:02:39;100400;;;21;38
33432;BME280;35187;31.882;34.828;2023-04-27T02:05:08;100400;;;21;38
33432;BME280;35187;31.882;34.828;2023-04-27T02:07:37;100400;;;21;38
33432;BME280;35187;31.882;34.828;2023-04-27T02:10:07;100400;;;21;38
33432;BME280;35187;31.882;34.828;2023-04-27T02:12:36;100400;;;21;38
33432;BME280;35187;31.882;34.828;2023-04-27T02:15:06;100400;;;21;38
33432;BME280;35187;31.882;34.828;2023-04-27T02:17:35;100400;;;21;38
33432;BME280;35187;31.882;34.828;2023-04-27T02:20:04;100400;;;21;38
33432;BME280;35187;31.882;34.828;2023-04-27T02:22:33;100390;;;21;38
33432;BME280;35187;31.882;34.828;2023-04-27T02:25:02;100390;;;21;38
33432;BME280;35187;31.882;34.828;2023-04-27T02:27:31;100380;;;21;38
33432;BME280;35187;31.882;34.828;2023-04-27T02:30:04;100380;;;21;38
33432;BME280;35187;31.882;34.828;2023-04-27T02:32:33;100380;;;21;38
33432;BME280;35187;31.882;34.828;2023-04-27T02:35:02;100370;;;21;38
33432;BME280;35187;31.882;34.828;2023-04-27T02:37:31;100380;;;21;38
33432;BME280;35187;31.882;34.828;2023-04-27T02:40:00;100380;;;21;38
33432;BME280;35187;31.882;34.828;2023-04-27T02:42:29;100380;;;21;38
33432;BME280;35187;31.882;34.828;2023-04-27T02:44:58;100380;;;21;38
33432;BME280;35187;31.882;34.828;2023-04-27T02:47:27;100380;;;21;38
33432;BME280;35187;31.882;34.828;2023-04-27T02:49:55;100380;;;21;38
33432;BME280;35187;31.882;34.828;2023-04-27T02:52:24;100380;;;21;38
33432;BME280;35187;31.882;34.828;2023-04-27T02:54:53;100380;;;21;38
33432;BME280;35187;31.882;34.828;2023-04-27T02:57:22;100380;;;21;38
33432;BME280;35187;31.882;34.828;2023-04-27T02:59:50;100380;;;21;38
33432;BME280;35187;31.882;34.828;2023-04-27T03:02:19;100370;;;21;38
33432;BME280;35187;31.882;34.828;2023-04-27T03:04:51;100370;;;21;38
33432;BME280;35187;31.882;34.828;2023-04-27T03:07:20;100360;;;21;38
33432;BME280;35187;31.882;34.828;2023-04-27T03:09:49;100360;;;21;37
33432;BME280;35187;31.882;34.828;2023-04-27T03:12:18;100360;;;21;37
33432;BME280;35187;31.882;34.828;2023-04-27T03:14:47;100360;;;21;37
33432;BME280;35187;31.882;34.828;2023-04-27T03:17:16;100360;;;21;37
33432;BME280;35187;31.882;34.828;2023-04-27T03:19:46;100360;;;21;37
33432;BME280;35187;31.882;34.828;2023-04-27T03:22:15;100370;;;21;37
33432;BME280;35187;31.882;34.828;2023-04-27T03:24:44;100370;;;21;37
33432;BME280;35187;31.882;34.828;2023-04-27T03:27:13;100370;;;21;37
33432;BME280;35187;31.882;34.828;2023-04-27T03:29:41;100370;;;21;37
33432;BME280;35187;31.882;34.828;2023-04-27T03:32:10;100370;;;21;37
33432;BME280;35187;31.882;34.828;2023-04-27T03:34:39;100380;;;21;37
33432;BME280;35187;31.882;34.828;2023-04-27T03:37:07;100380;;;21;37
33432;BME280;35187;31.882;34.828;2023-04-27T03:39:36;100390;;;21;37
33432;BME280;35187;31.882;34.828;2023-04-27T03:42:05;100390;;;21;37
33432;BME280;35187;31.882;34.828;2023-04-27T03:44:34;100390;;;21;37
33432;BME280;35187;31.882;34.828;2023-04-27T03:47:03;100390;;;21;37
33432;BME280;35187;31.882;34.828;2023-04-27T03:49:31;100390;;;21;37
33432;BME280;35187;31.882;34.828;2023-04-27T03:52:00;100390;;;21;37
33432;BME280;35187;31.882;34.828;2023-04-27T03:54:30;100390;;;21;37
33432;BME280;35187;31.882;34.828;2023-04-27T03:56:59;100390;;;21;37
33432;BME280;35187;31.882;34.828;2023-04-27T03:59:28;100390;;;21;37
33432;BME280;35187;31.882;34.828;2023-04-27T04:01:57;100390;;;21;37
33432;BME280;35187;31.882;34.828;2023-04-27T04:04:26;100390;;;21;37
33432;BME280;35187;31.882;34.828;2023-04-27T04:06:55;100390;;;21;37
33432;BME280;35187;31.882;34.828;2023-04-27T04:09:24;100390;;;21;37
33432;BME280;35187;31.882;34.828;2023-04-27T04:11:52;100390;;;21;37
33432;BME280;35187;31.882;34.828;2023-04-27T04:14:21;100390;;;21;37
33432;BME280;35187;31.882;34.828;2023-04-27T04:16:50;100390;;;21;37
33432;BME280;35187;31.882;34.828;2023-04-27T04:19:19;100400;;;21;37
33432;BME280;35187;31.882;34.828;2023-04-27T04:21:47;100400;;;21;37
33432;BME280;35187;31.882;34.828;2023-04-27T04:24:16;100400;;;21;37
33432;BME280;35187;31.882;34.828;2023-04-27T04:26:45;100400;;;21;37
33432;BME280;35187;31.882;34.828;2023-04-27T04:29:14;100400;;;21;37
33432;BME280;35187;31.882;34.828;2023-04-27T04:31:42;100400;;;21;37
33432;BME280;35187;31.882;34.828;2023-04-27T04:34:11;100400;;;21;37
33432;BME280;35187;31.882;34.828;2023-04-27T04:36:40;100410;;;21;37
33432;BME280;35187;31.882;34.828;2023-04-27T04:39:09;100400;;;21;37
33432;BME280;35187;31.882;34.828;2023-04-27T04:41:37;100400;;;21;37
33432;BME280;35187;31.882;34.828;2023-04-27T04:44:06;100410;;;21;37
33432;BME280;35187;31.882;34.828;2023-04-27T04:46:35;100410;;;21;37
33432;BME280;35187;31.882;34.828;2023-04-27T04:49:04;100410;;;21;37
33432;BME280;35187;31.882;34.828;2023-04-27T04:51:33;100410;;;21;37
33432;BME280;35187;31.882;34.828;2023-04-27T04:54:02;100400;;;21;37
33432;BME280;35187;31.882;34.828;2023-04-27T04:56:31;100410;;;21;36
33432;BME280;35187;31.882;34.828;2023-04-27T04:58:59;100410;;;21;34
33432;BME280;35187;31.882;34.828;2023-04-27T05:01:28;100410;;;21;33
33432;BME280;35187;31.882;34.828;2023-04-27T05:03:57;100410;;;21;33
33432;BME280;35187;31.882;34.828;2023-04-27T05:06:26;100410;;;20;32
33432;BME280;35187;31.882;34.828;2023-04-27T05:08:55;100410;;;20;32
33432;BME280;35187;31.882;34.828;2023-04-27T05:11:23;100410;;;20;32
33432;BME280;35187;31.882;34.828;2023-04-27T05:13:53;100410;;;20;33
33432;BME280;35187;31.882;34.828;2023-04-27T05:16:21;100410;;;20;33
33432;BME280;35187;31.882;34.828;2023-04-27T05:18:50;100410;;;20;33
33432;BME280;35187;31.882;34.828;2023-04-27T05:21:19;100410;;;20;33
33432;BME280;35187;31.882;34.828;2023-04-27T05:23:48;100400;;;20;32
33432;BME280;35187;31.882;34.828;2023-04-27T05:26:18;100400;;;20;32
33432;BME280;35187;31.882;34.828;2023-04-27T05:28:47;100410;;;20;32
33432;BME280;35187;31.882;34.828;2023-04-27T05:31:15;100410;;;20;33
33432;BME280;35187;31.882;34.828;2023-04-27T05:33:44;100420;;;20;33
33432;BME280;35187;31.882;34.828;2023-04-27T05:36:13;100420;;;20;33
33432;BME280;35187;31.882;34.828;2023-04-27T05:38:42;100420;;;21;33
33432;BME280;35187;31.882;34.828;2023-04-27T05:41:10;100430;;;20;33
33432;BME280;35187;31.882;34.828;2023-04-27T05:43:39;100430;;;20;33
33432;BME280;35187;31.882;34.828;2023-04-27T05:46:12;100430;;;21;33
33432;BME280;35187;31.882;34.828;2023-04-27T05:48:40;100430;;;20;33
33432;BME280;35187;31.882;34.828;2023-04-27T05:51:09;100430;;;20;32
33432;BME280;35187;31.882;34.828;2023-04-27T05:53:38;100430;;;21;31
33432;BME280;35187;31.882;34.828;2023-04-27T05:56:07;100430;;;20;31
33432;BME280;35187;31.882;34.828;2023-04-27T05:58:36;100420;;;21;31
33432;BME280;35187;31.882;34.828;2023-04-27T06:01:05;100430;;;20;31
33432;BME280;35187;31.882;34.828;2023-04-27T06:03:33;100420;;;20;31
33432;BME280;35187;31.882;34.828;2023-04-27T06:06:02;100420;;;21;31
33432;BME280;35187;31.882;34.828;2023-04-27T06:08:31;100420;;;21;31
33432;BME280;35187;31.882;34.828;2023-04-27T06:11:00;100410;;;21;32
33432;BME280;35187;31.882;34.828;2023-04-27T06:13:30;100410;;;21;32
33432;BME280;35187;31.882;34.828;2023-04-27T06:15:59;100410;;;21;31
33432;BME280;35187;31.882;34.828;2023-04-27T06:18:28;100410;;;21;32
33432;BME280;35187;31.882;34.828;2023-04-27T06:20:59;100410;;;21;32
33432;BME280;35187;31.882;34.828;2023-04-27T06:23:28;100410;;;21;32
33432;BME280;35187;31.882;34.828;2023-04-27T06:25:56;100410;;;21;32
33432;BME280;35187;31.882;34.828;2023-04-27T06:28:25;100410;;;21;32
33432;BME280;35187;31.882;34.828;2023-04-27T06:30:54;100410;;;21;32
33432;BME280;35187;31.882;34.828;2023-04-27T06:33:23;100410;;;21;33
33432;BME280;35187;31.882;34.828;2023-04-27T06:35:51;100410;;;21;33
33432;BME280;35187;31.882;34.828;2023-04-27T06:38:20;100410;;;21;33
33432;BME280;35187;31.882;34.828;2023-04-27T06:40:50;100410;;;20;34
33432;BME280;35187;31.882;34.828;2023-04-27T06:43:19;100410;;;21;34
33432;BME280;35187;31.882;34.828;2023-04-27T06:45:48;100410;;;21;33
33432;BME280;35187;31.882;34.828;2023-04-27T06:48:17;100410;;;21;33
33432;BME280;35187;31.882;34.828;2023-04-27T06:50:46;100410;;;21;34
33432;BME280;35187;31.882;34.828;2023-04-27T06:53:15;100410;;;21;34
33432;BME280;35187;31.882;34.828;2023-04-27T06:55:44;100410;;;21;34
33432;BME280;35187;31.882;34.828;2023-04-27T06:58:12;100410;;;21;35
33432;BME280;35187;31.882;34.828;2023-04-27T07:00:41;100400;;;21;35
33432;BME280;35187;31.882;34.828;2023-04-27T07:03:10;100400;;;21;35
33432;BME280;35187;31.882;34.828;2023-04-27T07:05:39;100400;;;21;35
33432;BME280;35187;31.882;34.828;2023-04-27T07:08:08;100400;;;21;35
33432;BME280;35187;31.882;34.828;2023-04-27T07:10:37;100400;;;21;35
33432;BME280;35187;31.882;34.828;2023-04-27T07:13:05;100400;;;21;35
33432;BME280;35187;31.882;34.828;2023-04-27T07:15:34;100390;;;21;35
33432;BME280;35187;31.882;34.828;2023-04-27T07:18:03;100400;;;21;35
33432;BME280;35187;31.882;34.828;2023-04-27T07:20:32;100390;;;21;35
33432;BME280;35187;31.882;34.828;2023-04-27T07:23:01;100390;;;21;35
33432;BME280;35187;31.882;34.828;2023-04-27T07:25:29;100390;;;21;35
33432;BME280;35187;31.882;34.828;2023-04-27T07:27:58;100380;;;21;35
33432;BME280;35187;31.882;34.828;2023-04-27T07:30:27;100380;;;21;33
33432;BME280;35187;31.882;34.828;2023-04-27T07:32:56;100380;;;21;33
33432;BME280;35187;31.882;34.828;2023-04-27T07:35:25;100380;;;21;33
33432;BME280;35187;31.882;34.828;2023-04-27T07:37:54;100380;;;21;33
33432;BME280;35187;31.882;34.828;2023-04-27T07:40:23;100370;;;21;32
33432;BME280;35187;31.882;34.828;2023-04-27T07:42:52;100370;;;21;33
33432;BME280;35187;31.882;34.828;2023-04-27T07:45:21;100370;;;21;33
33432;BME280;35187;31.882;34.828;2023-04-27T07:47:50;100370;;;21;34
33432;BME280;35187;31.882;34.828;2023-04-27T07:50:19;100370;;;21;34
33432;BME280;35187;31.882;34.828;2023-04-27T07:52:48;100370;;;21;35
33432;BME280;35187;31.882;34.828;2023-04-27T07:55:17;100370;;;21;35
33432;BME280;35187;31.882;34.828;2023-04-27T07:57:45;100370;;;21;34
33432;BME280;35187;31.882;34.828;2023-04-27T08:00:15;100370;;;21;35
33432;BME280;35187;31.882;34.828;2023-04-27T08:02:44;100370;;;21;34
33432;BME280;35187;31.882;34.828;2023-04-27T08:05:12;100370;;;21;35
33432;BME280;35187;31.882;34.828;2023-04-27T08:07:41;100370;;;21;35
33432;BME280;35187;31.882;34.828;2023-04-27T08:10:11;100370;;;21;35
33432;BME280;35187;31.882;34.828;2023-04-27T08:12:39;100360;;;21;35
33432;BME280;35187;31.882;34.828;2023-04-27T08:15:10;100360;;;21;35
33432;BME280;35187;31.882;34.828;2023-04-27T08:17:39;100360;;;21;34
33432;BME280;35187;31.882;34.828;2023-04-27T08:20:08;100360;;;21;35
33432;BME280;35187;31.882;34.828;2023-04-27T08:22:37;100360;;;21;35
33432;BME280;35187;31.882;34.828;2023-04-27T08:25:07;100370;;;21;35
33432;BME280;35187;31.882;34.828;2023-04-27T08:27:37;100370;;;21;34
33432;BME280;35187;31.882;34.828;2023-04-27T08:30:07;100360;;;21;35
33432;BME280;35187;31.882;34.828;2023-04-27T08:32:36;100360;;;21;35
33432;BME280;35187;31.882;34.828;2023-04-27T08:35:05;100360;;;21;35
33432;BME280;35187;31.882;34.828;2023-04-27T08:37:34;100350;;;21;33
33432;BME280;35187;31.882;34.828;2023-04-27T08:40:04;100350;;;21;34
33432;BME280;35187;31.882;34.828;2023-04-27T08:42:34;100340;;;21;34
33432;BME280;35187;31.882;34.828;2023-04-27T08:45:06;100340;;;21;34
33432;BME280;35187;31.882;34.828;2023-04-27T08:47:35;100340;;;21;34
33432;BME280;35187;31.882;34.828;2023-04-27T08:50:07;100340;;;21;34
33432;BME280;35187;31.882;34.828;2023-04-27T08:52:37;100340;;;21;34
33432;BME280;35187;31.882;34.828;2023-04-27T08:55:07;100330;;;21;34
33432;BME280;35187;31.882;34.828;2023-04-27T08:57:36;100330;;;21;34
33432;BME280;35187;31.882;34.828;2023-04-27T09:00:06;100330;;;21;34
33432;BME280;35187;31.882;34.828;2023-04-27T09:02:35;100320;;;21;34
33432;BME280;35187;31.882;34.828;2023-04-27T09:05:04;100320;;;21;34
33432;BME280;35187;31.882;34.828;2023-04-27T09:07:33;100320;;;21;34
33432;BME280;35187;31.882;34.828;2023-04-27T09:10:03;100310;;;21;34
33432;BME280;35187;31.882;34.828;2023-04-27T09:12:32;100310;;;21;34
33432;BME280;35187;31.882;34.828;2023-04-27T09:15:02;100310;;;21;34
33432;BME280;35187;31.882;34.828;2023-04-27T09:17:31;100310;;;21;34
33432;BME280;35187;31.882;34.828;2023-04-27T09:20:04;100300;;;21;35
33432;BME280;35187;31.882;34.828;2023-04-27T09:22:42;100310;;;21;34
33432;BME280;35187;31.882;34.828;2023-04-27T09:25:21;100310;;;21;35
33432;BME280;35187;31.882;34.828;2023-04-27T09:27:50;100300;;;21;35
33432;BME280;35187;31.882;34.828;2023-04-27T09:30:20;100300;;;21;35
33432;BME280;35187;31.882;34.828;2023-04-27T09:32:51;100300;;;21;35
33432;BME280;35187;31.882;34.828;2023-04-27T09:35:22;100300;;;21;35
33432;BME280;35187;31.882;34.828;2023-04-27T09:37:53;100290;;;21;35
33432;BME280;35187;31.882;34.828;2023-04-27T09:40:24;100290;;;21;35
33432;BME280;35187;31.882;34.828;2023-04-27T09:43:04;100290;;;21;35
33432;BME280;35187;31.882;34.828;2023-04-27T09:45:39;100290;;;21;35
33432;BME280;35187;31.882;34.828;2023-04-27T09:48:09;100280;;;21;35
33432;BME280;35187;31.882;34.828;2023-04-27T09:50:40;100280;;;21;35
33432;BME280;35187;31.882;34.828;2023-04-27T09:53:10;100290;;;21;35
33432;BME280;35187;31.882;34.828;2023-04-27T09:55:44;100290;;;21;35
33432;BME280;35187;31.882;34.828;2023-04-27T09:58:30;100280;;;21;35
33432;BME280;35187;31.882;34.828;2023-04-27T10:01:05;100280;;;21;35
33432;BME280;35187;31.882;34.828;2023-04-27T10:03:44;100280;;;21;35
33432;BME280;35187;31.882;34.828;2023-04-27T10:06:47;100270;;;21;35
33432;BME280;35187;31.882;34.828;2023-04-27T10:09:20;100270;;;21;35
33432;BME280;35187;31.882;34.828;2023-04-27T10:11:50;100270;;;21;34
33432;BME280;35187;31.882;34.828;2023-04-27T10:14:20;100270;;;21;34
33432;BME280;35187;31.882;34.828;2023-04-27T10:16:51;100270;;;21;33
33432;BME280;35187;31.882;34.828;2023-04-27T10:19:22;100260;;;21;33
33432;BME280;35187;31.882;34.828;2023-04-27T10:21:53;100270;;;21;32
33432;BME280;35187;31.882;34.828;2023-04-27T10:24:34;100270;;;21;32
33432;BME280;35187;31.882;34.828;2023-04-27T10:27:05;100270;;;21;32
33432;BME280;35187;31.882;34.828;2023-04-27T10:29:36;100270;;;21;32
33432;BME280;35187;31.882;34.828;2023-04-27T10:32:07;100280;;;21;32
33432;BME280;35187;31.882;34.828;2023-04-27T10:34:36;100280;;;21;32
33432;BME280;35187;31.882;34.828;2023-04-27T10:37:07;100270;;;21;32
33432;BME280;35187;31.882;34.828;2023-04-27T10:39:38;100270;;;21;32
33432;BME280;35187;31.882;34.828;2023-04-27T10:42:07;100270;;;21;32
33432;BME280;35187;31.882;34.828;2023-04-27T10:44:37;100270;;;21;32
33432;BME280;35187;31.882;34.828;2023-04-27T10:47:14;100270;;;21;32
33432;BME280;35187;31.882;34.828;2023-04-27T10:49:44;100260;;;21;32
33432;BME280;35187;31.882;34.828;2023-04-27T10:52:13;100260;;;21;31
33432;BME280;35187;31.882;34.828;2023-04-27T10:54:45;100260;;;21;31
33432;BME280;35187;31.882;34.828;2023-04-27T10:57:14;100250;;;21;31
33432;BME280;35187;31.882;34.828;2023-04-27T10:59:51;100250;;;21;31
33432;BME280;35187;31.882;34.828;2023-04-27T11:02:26;100240;;;21;30
33432;BME280;35187;31.882;34.828;2023-04-27T11:04:55;100240;;;21;30
33432;BME280;35187;31.882;34.828;2023-04-27T11:07:26;100240;;;21;30
33432;BME280;35187;31.882;34.828;2023-04-27T11:09:55;100230;;;21;30
33432;BME280;35187;31.882;34.828;2023-04-27T11:12:24;100230;;;21;30
33432;BME280;35187;31.882;34.828;2023-04-27T11:14:56;100240;;;21;30
33432;BME280;35187;31.882;34.828;2023-04-27T11:17:29;100230;;;21;30
33432;BME280;35187;31.882;34.828;2023-04-27T11:19:57;100220;;;21;31
33432;BME280;35187;31.882;34.828;2023-04-27T11:22:26;100220;;;21;30
33432;BME280;35187;31.882;34.828;2023-04-27T11:24:55;100220;;;21;31
33432;BME280;35187;31.882;34.828;2023-04-27T11:27:35;100220;;;21;31
33432;BME280;35187;31.882;34.828;2023-04-27T11:30:05;100220;;;21;31
33432;BME280;35187;31.882;34.828;2023-04-27T11:32:34;100230;;;21;31
33432;BME280;35187;31.882;34.828;2023-04-27T11:35:03;100230;;;21;31
33432;BME280;35187;31.882;34.828;2023-04-27T11:37:32;100220;;;21;31
33432;BME280;35187;31.882;34.828;2023-04-27T11:40:01;100230;;;21;31
33432;BME280;35187;31.882;34.828;2023-04-27T11:42:30;100220;;;21;31
33432;BME280;35187;31.882;34.828;2023-04-27T11:45:00;100230;;;21;31
33432;BME280;35187;31.882;34.828;2023-04-27T11:47:30;100230;;;21;31
33432;BME280;35187;31.882;34.828;2023-04-27T11:50:01;100230;;;21;31
33432;BME280;35187;31.882;34.828;2023-04-27T11:52:31;100220;;;21;31
33432;BME280;35187;31.882;34.828;2023-04-27T11:55:01;100220;;;21;31
33432;BME280;35187;31.882;34.828;2023-04-27T11:57:32;100220;;;21;31
33432;BME280;35187;31.882;34.828;2023-04-27T12:00:03;100210;;;21;31
33432;BME280;35187;31.882;34.828;2023-04-27T12:02:32;100210;;;21;31
33432;BME280;35187;31.882;34.828;2023-04-27T12:05:02;100210;;;21;31
33432;BME280;35187;31.882;34.828;2023-04-27T12:07:31;100210;;;21;30
33432;BME280;35187;31.882;34.828;2023-04-27T12:10:00;100210;;;21;30
33432;BME280;35187;31.882;34.828;2023-04-27T12:12:29;100210;;;21;30
33432;BME280;35187;31.882;34.828;2023-04-27T12:14:58;100210;;;21;30
33432;BME280;35187;31.882;34.828;2023-04-27T12:17:26;100210;;;21;30
33432;BME280;35187;31.882;34.828;2023-04-27T12:19:55;100200;;;21;30
33432;BME280;35187;31.882;34.828;2023-04-27T12:22:24;100210;;;21;30
33432;BME280;35187;31.882;34.828;2023-04-27T12:24:53;100210;;;21;30
33432;BME280;35187;31.882;34.828;2023-04-27T12:27:21;100210;;;21;30
33432;BME280;35187;31.882;34.828;2023-04-27T12:29:50;100210;;;21;30
33432;BME280;35187;31.882;34.828;2023-04-27T12:32:19;100210;;;21;30
33432;BME280;35187;31.882;34.828;2023-04-27T12:34:48;100200;;;21;30
33432;BME280;35187;31.882;34.828;2023-04-27T12:37:17;100200;;;21;30
33432;BME280;35187;31.882;34.828;2023-04-27T12:39:45;100210;;;21;30
33432;BME280;35187;31.882;34.828;2023-04-27T12:42:14;100210;;;21;30
33432;BME280;35187;31.882;34.828;2023-04-27T12:44:44;100200;;;21;30
33432;BME280;35187;31.882;34.828;2023-04-27T12:47:12;100200;;;21;30
33432;BME280;35187;31.882;34.828;2023-04-27T12:49:41;100200;;;21;30
33432;BME280;35187;31.882;34.828;2023-04-27T12:52:10;100200;;;21;30
33432;BME280;35187;31.882;34.828;2023-04-27T12:54:39;100200;;;21;30
33432;BME280;35187;31.882;34.828;2023-04-27T12:57:08;100190;;;21;30
33432;BME280;35187;31.882;34.828;2023-04-27T12:59:37;100200;;;21;30
33432;BME280;35187;31.882;34.828;2023-04-27T13:02:06;100200;;;21;30
33432;BME280;35187;31.882;34.828;2023-04-27T13:04:35;100190;;;21;30
33432;BME280;35187;31.882;34.828;2023-04-27T13:07:03;100180;;;21;30
33432;BME280;35187;31.882;34.828;2023-04-27T13:09:32;100180;;;21;30
33432;BME280;35187;31.882;34.828;2023-04-27T13:12:01;100180;;;21;30
33432;BME280;35187;31.882;34.828;2023-04-27T13:14:30;100170;;;21;30
33432;BME280;35187;31.882;34.828;2023-04-27T13:16:59;100170;;;21;30
33432;BME280;35187;31.882;34.828;2023-04-27T13:19:27;100170;;;21;30
33432;BME280;35187;31.882;34.828;2023-04-27T13:21:56;100170;;;21;30
33432;BME280;35187;31.882;34.828;2023-04-27T13:24:25;100170;;;21;30
33432;BME280;35187;31.882;34.828;2023-04-27T13:26:54;100170;;;21;30
33432;BME280;35187;31.882;34.828;2023-04-27T13:29:23;100170;;;21;30
33432;BME280;35187;31.882;34.828;2023-04-27T13:31:51;100170;;;21;30
33432;BME280;35187;31.882;34.828;2023-04-27T13:34:20;100170;;;21;31
33432;BME280;35187;31.882;34.828;2023-04-27T13:36:49;100160;;;21;31
33432;BME280;35187;31.882;34.828;2023-04-27T13:39:18;100160;;;21;30
33432;BME280;35187;31.882;34.828;2023-04-27T13:41:47;100150;;;21;31
33432;BME280;35187;31.882;34.828;2023-04-27T13:44:16;100150;;;21;31
33432;BME280;35187;31.882;34.828;2023-04-27T13:46:44;100140;;;21;31
33432;BME280;35187;31.882;34.828;2023-04-27T13:49:13;100130;;;21;31
33432;BME280;35187;31.882;34.828;2023-04-27T13:51:44;100120;;;21;31
33432;BME280;35187;31.882;34.828;2023-04-27T13:54:13;100120;;;21;31
33432;BME280;35187;31.882;34.828;2023-04-27T13:56:41;100120;;;21;31
33432;BME280;35187;31.882;34.828;2023-04-27T13:59:10;100120;;;21;31
33432;BME280;35187;31.882;34.828;2023-04-27T14:01:39;100120;;;21;31
33432;BME280;35187;31.882;34.828;2023-04-27T14:04:08;100120;;;21;31
33432;BME280;35187;31.882;34.828;2023-04-27T14:06:36;100120;;;21;31
33432;BME280;35187;31.882;34.828;2023-04-27T14:09:05;100120;;;21;31
33432;BME280;35187;31.882;34.828;2023-04-27T14:11:34;100120;;;21;31
33432;BME280;35187;31.882;34.828;2023-04-27T14:14:03;100120;;;21;31
33432;BME280;35187;31.882;34.828;2023-04-27T14:16:31;100120;;;21;31
33432;BME280;35187;31.882;34.828;2023-04-27T14:19:00;100120;;;21;31
33432;BME280;35187;31.882;34.828;2023-04-27T14:21:29;100120;;;21;31
33432;BME280;35187;31.882;34.828;2023-04-27T14:23:58;100130;;;21;31
33432;BME280;35187;31.882;34.828;2023-04-27T14:26:27;100130;;;21;31
33432;BME280;35187;31.882;34.828;2023-04-27T14:28:55;100130;;;21;31
33432;BME280;35187;31.882;34.828;2023-04-27T14:31:24;100130;;;21;31
33432;BME280;35187;31.882;34.828;2023-04-27T14:33:53;100130;;;21;31